< < Back
Terminal Aerodrome Forecast


Current Version              Previous Versions:   1  2  3  4  5  6  7  8  9  

Terminal Aerodrome Forecast

466
FTUS42 KGSP 032320
TAFAND
TAF
KAND 032320Z 0400/0424 21008KT P6SM FEW070
     FM040300 17003KT P6SM SCT070
     FM040800 16003KT P6SM FEW070 SCT200
     FM041400 20003KT P6SM FEW070 SCT200
     FM041900 21006KT P6SM SCT070=



Latest METAR

568
SAUS70 KWBC 041100 RRG
MTRAND
METAR KAND 041056Z AUTO 00000KT 10SM CLR 12/10 A3026 RMK AO2 SLP242
T01170100


USA.gov is the U.S. government's official web portal to all federal, state and local government web resources and services.